createdAt,value
2022-09-20T00:01:08.074Z,12.72
2022-09-20T00:03:43.181Z,12.63
2022-09-20T00:06:19.134Z,12.63
2022-09-20T00:08:52.180Z,12.61
2022-09-20T00:11:26.522Z,12.61
2022-09-20T00:14:02.423Z,12.55
2022-09-20T00:16:38.183Z,12.56
2022-09-20T00:19:18.226Z,12.45
2022-09-20T00:21:50.377Z,12.46
2022-09-20T00:24:22.662Z,12.44
2022-09-20T00:26:55.285Z,12.45
2022-09-20T00:29:27.650Z,12.52
2022-09-20T00:31:59.902Z,12.49
2022-09-20T00:34:50.150Z,12.44
2022-09-20T00:37:22.119Z,12.28
2022-09-20T00:39:54.274Z,12.28
2022-09-20T00:42:31.410Z,12.30
2022-09-20T00:45:05.582Z,12.34
2022-09-20T00:47:43.191Z,12.32
2022-09-20T00:50:25.710Z,12.31
2022-09-20T00:53:04.312Z,12.29
2022-09-20T00:55:39.940Z,12.23
2022-09-20T00:58:12.570Z,12.34
2022-09-20T01:00:47.179Z,12.34
2022-09-20T01:03:23.642Z,12.37
2022-09-20T01:05:57.283Z,12.26
2022-09-20T01:08:30.154Z,12.32
2022-09-20T01:11:02.625Z,12.32
2022-09-20T01:13:34.845Z,12.28
2022-09-20T01:16:09.326Z,12.25
2022-09-20T01:18:43.028Z,12.28
2022-09-20T01:21:16.578Z,12.23
2022-09-20T01:23:59.063Z,12.30
2022-09-20T01:27:12.220Z,12.08
2022-09-20T01:30:00.186Z,12.09
2022-09-20T01:32:44.624Z,12.15
2022-09-20T01:35:20.098Z,12.15
2022-09-20T01:38:06.737Z,12.19
2022-09-20T01:40:46.699Z,12.23
2022-09-20T01:43:27.453Z,12.29
2022-09-20T01:46:05.741Z,12.39
2022-09-20T01:48:41.213Z,12.43
2022-09-20T01:51:58.112Z,12.34
2022-09-20T01:55:03.319Z,12.18
2022-09-20T01:57:56.364Z,12.05
2022-09-20T02:00:31.196Z,12.08
2022-09-20T02:03:34.043Z,12.07
2022-09-20T02:06:42.133Z,12.02
2022-09-20T02:09:47.925Z,12.00
2022-09-20T02:12:34.695Z,12.02
2022-09-20T02:15:15.826Z,12.13
2022-09-20T02:17:56.553Z,12.20
2022-09-20T02:20:40.758Z,12.22
2022-09-20T02:23:30.508Z,12.24
2022-09-20T02:26:20.469Z,12.18
2022-09-20T02:29:02.698Z,12.17
2022-09-20T02:31:55.735Z,12.09
2022-09-20T02:34:45.972Z,12.08
2022-09-20T02:37:48.840Z,12.05
2022-09-20T02:40:43.977Z,11.99
2022-09-20T02:43:28.901Z,12.07
2022-09-20T02:46:03.019Z,12.10
2022-09-20T02:48:46.904Z,11.89
2022-09-20T02:51:29.510Z,11.78
2022-09-20T02:54:13.053Z,11.73
2022-09-20T02:56:52.656Z,11.77
2022-09-20T02:59:33.609Z,11.76
2022-09-20T03:02:13.462Z,11.79
2022-09-20T03:05:03.660Z,11.84
2022-09-20T03:07:47.559Z,11.89
2022-09-20T03:10:28.640Z,11.79
2022-09-20T03:13:15.282Z,11.80
2022-09-20T03:15:59.240Z,11.76
2022-09-20T03:18:43.774Z,11.71
2022-09-20T03:21:29.271Z,11.77
2022-09-20T03:24:12.652Z,11.60
2022-09-20T03:26:57.410Z,11.90
2022-09-20T03:29:42.284Z,11.88
2022-09-20T03:32:27.783Z,11.93
2022-09-20T03:35:09.853Z,11.80
2022-09-20T03:38:00.975Z,11.63
2022-09-20T03:40:55.475Z,11.60
2022-09-20T03:43:55.903Z,11.56
2022-09-20T03:46:30.602Z,11.65
2022-09-20T03:49:33.306Z,11.59
2022-09-20T03:52:16.764Z,11.60
2022-09-20T03:55:31.263Z,11.58
2022-09-20T03:58:24.815Z,11.58
2022-09-20T04:01:11.039Z,11.70
2022-09-20T04:03:52.514Z,11.71
2022-09-20T04:06:46.188Z,11.78
2022-09-20T04:09:49.854Z,11.73
2022-09-20T04:12:31.229Z,11.72
2022-09-20T04:15:16.363Z,11.65
2022-09-20T04:17:55.769Z,11.55
2022-09-20T04:20:39.783Z,11.60
2022-09-20T04:23:22.958Z,11.54
2022-09-20T04:25:55.451Z,11.52
2022-09-20T04:28:32.151Z,11.55
2022-09-20T04:31:17.763Z,11.59
2022-09-20T04:33:55.981Z,11.65
2022-09-20T04:36:38.716Z,11.64
2022-09-20T04:39:25.369Z,11.61
2022-09-20T04:42:29.169Z,11.58
2022-09-20T04:45:33.274Z,11.63
2022-09-20T04:48:53.743Z,11.67
2022-09-20T04:52:17.002Z,11.43
2022-09-20T04:55:25.103Z,11.48
2022-09-20T04:58:30.549Z,11.50
2022-09-20T05:01:37.197Z,11.49
2022-09-20T05:04:44.480Z,11.54
2022-09-20T05:07:43.293Z,11.58
2022-09-20T05:10:49.585Z,11.62
2022-09-20T05:13:37.331Z,11.59
2022-09-20T05:16:19.752Z,11.63
2022-09-20T05:19:13.570Z,11.55
2022-09-20T05:21:59.946Z,11.64
2022-09-20T05:25:16.006Z,11.69
2022-09-20T05:27:55.035Z,11.72
2022-09-20T05:30:38.137Z,11.80
2022-09-20T05:33:21.911Z,11.92
2022-09-20T05:36:05.462Z,11.93
2022-09-20T05:38:47.622Z,11.87
2022-09-20T05:41:32.122Z,11.84
2022-09-20T05:44:17.027Z,11.85
2022-09-20T05:47:00.329Z,11.79
2022-09-20T05:49:45.413Z,11.80
2022-09-20T05:52:38.269Z,11.84
2022-09-20T05:55:32.161Z,11.80
2022-09-20T05:58:22.659Z,11.84
2022-09-20T06:01:03.381Z,11.80
2022-09-20T06:03:42.671Z,11.78
2022-09-20T06:06:23.049Z,11.75
2022-09-20T06:09:26.661Z,11.79
2022-09-20T06:12:24.859Z,11.82
2022-09-20T06:15:05.079Z,11.83
2022-09-20T06:17:43.479Z,11.83
2022-09-20T06:20:26.723Z,11.90
2022-09-20T06:23:02.050Z,11.98
2022-09-20T06:25:42.956Z,12.05
2022-09-20T06:28:19.614Z,12.02
2022-09-20T06:30:53.799Z,12.12
2022-09-20T06:33:27.311Z,12.14
2022-09-20T06:36:21.426Z,12.24
2022-09-20T06:39:22.989Z,12.31
2022-09-20T06:41:56.500Z,12.33
2022-09-20T06:44:28.934Z,12.31
2022-09-20T06:47:01.883Z,12.22
2022-09-20T06:49:35.988Z,12.21
2022-09-20T06:52:10.759Z,12.28
2022-09-20T06:54:46.078Z,12.33
2022-09-20T06:57:21.777Z,12.40
2022-09-20T06:59:53.952Z,12.44
2022-09-20T07:02:27.349Z,12.46
2022-09-20T07:04:59.726Z,12.50
2022-09-20T07:07:32.066Z,12.39
2022-09-20T07:10:04.503Z,12.43
2022-09-20T07:12:36.743Z,12.54
2022-09-20T07:15:10.847Z,12.51
2022-09-20T07:17:45.307Z,12.46
2022-09-20T07:20:21.230Z,12.45
2022-09-20T07:22:54.831Z,12.55
2022-09-20T07:25:27.600Z,12.60
2022-09-20T07:28:00.222Z,12.56
2022-09-20T07:30:32.282Z,12.40
2022-09-20T07:33:04.291Z,12.50
2022-09-20T07:35:36.463Z,12.42
2022-09-20T07:38:08.936Z,12.60
2022-09-20T07:40:41.479Z,12.54
2022-09-20T07:43:14.192Z,12.61
2022-09-20T07:45:52.671Z,12.70
2022-09-20T07:48:27.068Z,12.73
2022-09-20T07:51:05.717Z,12.79
2022-09-20T07:53:41.940Z,12.67
2022-09-20T07:56:16.293Z,12.82
2022-09-20T07:58:52.382Z,12.87
2022-09-20T08:01:24.821Z,13.00
2022-09-20T08:03:57.440Z,12.96
2022-09-20T08:06:30.333Z,12.89
2022-09-20T08:09:02.753Z,12.96
2022-09-20T08:11:36.448Z,13.00
2022-09-20T08:14:09.574Z,12.98
2022-09-20T08:16:44.591Z,13.11
2022-09-20T08:19:17.958Z,13.19
2022-09-20T08:21:51.135Z,13.23
2022-09-20T08:24:26.251Z,13.28
2022-09-20T08:26:59.253Z,13.37
2022-09-20T08:29:31.530Z,13.45
2022-09-20T08:32:04.456Z,13.52
2022-09-20T08:34:37.700Z,13.40
2022-09-20T08:37:09.893Z,13.46
2022-09-20T08:39:58.758Z,13.51
2022-09-20T08:42:43.639Z,13.45
2022-09-20T08:45:22.679Z,13.57
2022-09-20T08:48:14.551Z,13.54
2022-09-20T08:50:47.044Z,13.54
2022-09-20T08:53:21.224Z,13.80
2022-09-20T08:55:53.597Z,13.95
2022-09-20T08:58:26.210Z,13.95
2022-09-20T09:01:00.268Z,14.11
2022-09-20T09:03:33.140Z,14.30
2022-09-20T09:06:10.324Z,14.23
2022-09-20T09:08:52.012Z,14.36
2022-09-20T09:11:24.858Z,14.48
2022-09-20T09:14:02.465Z,14.56
2022-09-20T09:16:36.442Z,14.58
2022-09-20T09:19:36.030Z,14.74
2022-09-20T09:22:09.531Z,14.88
2022-09-20T09:24:41.712Z,15.03
2022-09-20T09:27:19.459Z,15.14
2022-09-20T09:29:56.067Z,15.15
2022-09-20T09:32:31.200Z,15.20
2022-09-20T09:35:26.296Z,15.11
2022-09-20T09:37:59.978Z,15.26
2022-09-20T09:40:33.658Z,15.17
2022-09-20T09:43:06.890Z,15.24
2022-09-20T09:45:40.721Z,15.31
2022-09-20T09:48:24.888Z,15.20
2022-09-20T09:51:15.505Z,15.13
2022-09-20T09:53:50.282Z,15.35
2022-09-20T09:56:30.550Z,15.63
2022-09-20T09:59:24.313Z,15.55
2022-09-20T10:02:05.444Z,15.58
2022-09-20T10:04:43.983Z,15.75
2022-09-20T10:07:24.540Z,15.90
2022-09-20T10:10:09.548Z,16.08
2022-09-20T10:12:57.450Z,16.01
2022-09-20T10:15:39.043Z,16.17
2022-09-20T10:18:31.044Z,16.18
2022-09-20T10:21:15.050Z,16.10
2022-09-20T10:24:04.064Z,16.23
2022-09-20T10:27:03.227Z,16.43
2022-09-20T10:29:47.500Z,16.42
2022-09-20T10:32:34.179Z,16.38
2022-09-20T10:35:24.021Z,16.18
2022-09-20T10:38:13.457Z,16.25
2022-09-20T10:41:21.748Z,16.30
2022-09-20T10:44:06.963Z,16.33
2022-09-20T10:46:50.055Z,16.29
2022-09-20T10:49:28.923Z,16.20
2022-09-20T10:52:14.725Z,16.31
2022-09-20T10:55:04.869Z,16.40
2022-09-20T10:58:08.209Z,16.45
2022-09-20T11:00:50.002Z,16.63
2022-09-20T11:03:34.610Z,16.76
2022-09-20T11:06:21.481Z,16.75
2022-09-20T11:08:57.270Z,16.76
2022-09-20T11:11:35.716Z,16.74
2022-09-20T11:14:12.948Z,16.63
2022-09-20T11:16:52.388Z,16.46
2022-09-20T11:19:31.510Z,16.21
2022-09-20T11:22:11.778Z,16.03
2022-09-20T11:24:48.098Z,16.12
2022-09-20T11:27:23.708Z,16.09
2022-09-20T11:30:03.870Z,15.86
2022-09-20T11:32:42.976Z,15.90
2022-09-20T11:35:29.273Z,16.12
2022-09-20T11:38:14.337Z,16.31
2022-09-20T11:40:48.012Z,16.57
2022-09-20T11:43:22.308Z,16.66
2022-09-20T11:45:58.101Z,17.00
2022-09-20T11:48:33.087Z,17.14
2022-09-20T11:51:38.906Z,17.27
2022-09-20T11:54:35.142Z,17.48
2022-09-20T11:57:08.855Z,17.64
2022-09-20T11:59:44.491Z,17.83
2022-09-20T12:02:23.432Z,17.99
2022-09-20T12:04:56.632Z,17.88
2022-09-20T12:07:35.207Z,17.75
2022-09-20T12:10:21.699Z,17.89
2022-09-20T12:13:00.628Z,18.05
2022-09-20T12:15:35.916Z,17.83
2022-09-20T12:18:38.207Z,17.79
2022-09-20T12:21:16.255Z,17.74
2022-09-20T12:24:22.935Z,18.06
2022-09-20T12:26:57.959Z,18.17
2022-09-20T12:30:00.074Z,18.07
2022-09-20T12:32:47.444Z,17.75
2022-09-20T12:36:00.234Z,17.69
2022-09-20T12:38:39.062Z,17.89
2022-09-20T12:41:17.243Z,17.74
2022-09-20T12:43:57.639Z,17.54
2022-09-20T12:46:43.809Z,17.34
2022-09-20T12:50:07.925Z,17.17
2022-09-20T12:52:57.134Z,17.08
2022-09-20T12:55:45.877Z,17.01
2022-09-20T12:58:28.130Z,17.09
2022-09-20T13:01:30.144Z,17.08
2022-09-20T13:04:33.458Z,17.14
2022-09-20T13:07:35.901Z,17.15
2022-09-20T13:10:21.843Z,17.03
2022-09-20T13:12:57.431Z,16.92
2022-09-20T13:15:33.275Z,16.75
2022-09-20T13:18:06.807Z,16.66
2022-09-20T13:20:40.120Z,16.47
2022-09-20T13:23:21.672Z,16.50
2022-09-20T13:25:57.661Z,16.36
2022-09-20T13:28:38.857Z,16.20
2022-09-20T13:31:30.241Z,15.90
2022-09-20T13:34:31.657Z,15.87
2022-09-20T13:37:04.409Z,15.83
2022-09-20T13:39:38.785Z,15.75
2022-09-20T13:42:16.358Z,15.59
2022-09-20T13:44:49.605Z,15.48
2022-09-20T13:47:27.991Z,15.48
2022-09-20T13:50:21.990Z,15.37
2022-09-20T13:52:56.203Z,15.59
2022-09-20T13:55:34.517Z,15.56
2022-09-20T13:58:10.948Z,15.55
2022-09-20T14:00:50.026Z,15.54
2022-09-20T14:03:23.467Z,15.52
2022-09-20T14:06:00.015Z,15.55
2022-09-20T14:08:39.284Z,15.48
2022-09-20T14:11:17.287Z,15.54
2022-09-20T14:13:51.857Z,15.51
2022-09-20T14:16:29.422Z,15.49
2022-09-20T14:19:03.975Z,15.48
2022-09-20T14:21:38.513Z,15.48
2022-09-20T14:24:30.642Z,15.50
2022-09-20T14:27:18.329Z,15.47
2022-09-20T14:29:52.252Z,15.53
2022-09-20T14:32:39.139Z,15.52
2022-09-20T14:35:19.231Z,15.64
2022-09-20T14:37:54.026Z,15.69
2022-09-20T14:50:29.552Z,16.12
2022-09-20T14:53:28.168Z,15.97
2022-09-20T14:56:13.996Z,15.97
2022-09-20T14:59:21.808Z,16.08
2022-09-20T15:02:13.871Z,16.12
2022-09-20T15:04:56.263Z,16.12
2022-09-20T15:07:28.909Z,15.97
2022-09-20T15:10:01.726Z,16.08
2022-09-20T15:12:34.015Z,16.02
2022-09-20T15:15:07.278Z,16.06
2022-09-20T15:17:39.676Z,16.05
2022-09-20T15:20:20.605Z,16.10
2022-09-20T15:22:56.828Z,16.13
2022-09-20T15:25:30.183Z,16.17
2022-09-20T15:28:02.495Z,16.15
2022-09-20T15:30:35.412Z,16.14
2022-09-20T15:33:07.621Z,16.11
2022-09-20T15:35:40.715Z,16.05
2022-09-20T15:38:14.202Z,16.04
2022-09-20T15:40:48.272Z,16.01
2022-09-20T15:43:24.162Z,16.03
2022-09-20T15:46:00.494Z,15.99
2022-09-20T15:48:33.732Z,15.98
2022-09-20T15:51:08.259Z,16.02
2022-09-20T15:53:44.937Z,16.06
2022-09-20T15:56:21.304Z,16.00
2022-09-20T15:58:59.218Z,15.91
2022-09-20T16:01:34.271Z,15.96
2022-09-20T16:04:10.606Z,15.96
2022-09-20T16:06:45.865Z,15.95
2022-09-20T16:09:19.554Z,15.92
2022-09-20T16:11:52.054Z,15.84
2022-09-20T16:14:26.050Z,15.82
2022-09-20T16:16:58.644Z,15.78
2022-09-20T16:19:31.084Z,15.78
2022-09-20T16:22:03.272Z,15.78
2022-09-20T16:24:38.995Z,15.79
2022-09-20T16:27:12.311Z,15.77
2022-09-20T16:29:44.380Z,15.73
2022-09-20T16:32:16.464Z,15.71
2022-09-20T16:34:51.126Z,15.62
2022-09-20T16:37:24.507Z,15.53
2022-09-20T16:39:57.701Z,15.52
2022-09-20T16:42:30.026Z,15.54
2022-09-20T16:45:02.170Z,15.44
2022-09-20T16:47:34.570Z,15.42
2022-09-20T16:50:09.226Z,15.38
2022-09-20T16:52:41.394Z,15.38
2022-09-20T16:55:13.593Z,15.35
2022-09-20T16:57:51.811Z,15.37
2022-09-20T17:00:24.132Z,15.29
2022-09-20T17:02:56.719Z,15.28
2022-09-20T17:05:29.550Z,15.29
2022-09-20T17:08:02.216Z,15.25
2022-09-20T17:10:34.622Z,15.23
2022-09-20T17:13:07.605Z,15.21
2022-09-20T17:15:40.059Z,15.15
2022-09-20T17:18:15.492Z,15.14
2022-09-20T17:20:49.245Z,15.13
2022-09-20T17:23:21.634Z,15.06
2022-09-20T17:26:05.120Z,15.08
2022-09-20T17:28:42.033Z,15.04
2022-09-20T17:31:16.091Z,15.03
2022-09-20T17:33:48.563Z,15.01
2022-09-20T17:36:22.600Z,14.99
2022-09-20T17:39:03.002Z,14.92
2022-09-20T17:41:36.679Z,14.79
2022-09-20T17:44:10.655Z,14.92
2022-09-20T17:46:45.214Z,14.97
2022-09-20T17:49:19.476Z,14.99
2022-09-20T17:51:53.380Z,14.97
2022-09-20T17:54:26.351Z,14.95
2022-09-20T17:56:58.627Z,14.94
2022-09-20T17:59:31.153Z,14.95
2022-09-20T18:02:03.232Z,14.92
2022-09-20T18:04:35.429Z,14.93
2022-09-20T18:07:08.149Z,14.89
2022-09-20T18:09:40.383Z,14.92
2022-09-20T18:12:17.545Z,14.86
2022-09-20T18:14:51.830Z,14.80
2022-09-20T18:17:25.017Z,14.85
2022-09-20T18:19:57.791Z,14.74
2022-09-20T18:22:29.986Z,14.62
2022-09-20T18:25:02.247Z,14.55
2022-09-20T18:27:34.853Z,14.45
2022-09-20T18:30:10.515Z,14.43
2022-09-20T18:32:44.474Z,14.43
2022-09-20T18:35:16.912Z,14.37
2022-09-20T18:37:49.775Z,14.32
2022-09-20T18:40:23.431Z,14.34
2022-09-20T18:43:03.704Z,14.33
2022-09-20T18:45:36.876Z,14.31
2022-09-20T18:48:09.062Z,14.34
2022-09-20T18:50:41.433Z,14.28
2022-09-20T18:53:13.881Z,14.17
2022-09-20T18:55:47.474Z,14.13
2022-09-20T18:58:23.168Z,14.04
2022-09-20T19:01:17.082Z,14.13
2022-09-20T19:04:02.291Z,14.12
2022-09-20T19:06:42.825Z,14.11
2022-09-20T19:09:21.941Z,14.07
2022-09-20T19:12:02.905Z,14.03
2022-09-20T19:14:48.268Z,14.00
2022-09-20T19:17:26.488Z,14.02
2022-09-20T19:20:05.466Z,14.04
2022-09-20T19:22:52.169Z,13.91
2022-09-20T19:25:33.029Z,14.00
2022-09-20T19:28:07.751Z,13.93
2022-09-20T19:30:42.504Z,13.93
2022-09-20T19:33:16.922Z,13.90
2022-09-20T19:35:53.076Z,13.94
2022-09-20T19:38:42.082Z,13.93
2022-09-20T19:41:29.521Z,13.85
2022-09-20T19:44:14.493Z,13.85
2022-09-20T19:47:01.777Z,13.78
2022-09-20T19:49:47.245Z,13.71
2022-09-20T19:52:20.348Z,13.65
2022-09-20T19:54:54.057Z,13.70
2022-09-20T19:57:33.203Z,13.69
2022-09-20T20:00:09.500Z,13.72
2022-09-20T20:02:45.954Z,13.67
2022-09-20T20:05:21.363Z,13.62
2022-09-20T20:08:00.765Z,13.60
2022-09-20T20:10:40.788Z,13.54
2022-09-20T20:13:52.385Z,13.60
2022-09-20T20:16:34.911Z,13.58
2022-09-20T20:19:16.264Z,13.54
2022-09-20T20:21:56.468Z,13.41
2022-09-20T20:24:34.318Z,13.42
2022-09-20T20:27:06.962Z,13.41
2022-09-20T20:29:39.089Z,13.35
2022-09-20T20:32:11.040Z,13.36
2022-09-20T20:34:43.109Z,13.24
2022-09-20T20:37:16.165Z,13.26
2022-09-20T20:39:48.631Z,13.25
2022-09-20T20:42:21.832Z,13.25
2022-09-20T20:44:54.234Z,13.17
2022-09-20T20:47:26.463Z,13.12
2022-09-20T20:49:58.685Z,13.06
2022-09-20T20:52:31.534Z,13.13
2022-09-20T20:55:04.256Z,13.10
2022-09-20T20:57:38.101Z,13.03
2022-09-20T21:00:12.801Z,13.17
2022-09-20T21:02:45.540Z,13.10
2022-09-20T21:05:18.256Z,13.08
2022-09-20T21:07:53.220Z,13.04
2022-09-20T21:10:24.023Z,13.04
2022-09-20T21:12:57.751Z,13.07
2022-09-20T21:15:30.178Z,13.04
2022-09-20T21:18:02.320Z,13.06
2022-09-20T21:20:34.641Z,13.10
2022-09-20T21:23:06.867Z,13.00
2022-09-20T21:25:39.151Z,12.98
2022-09-20T21:28:11.393Z,13.00
2022-09-20T21:30:43.487Z,13.00
2022-09-20T21:33:15.614Z,12.87
2022-09-20T21:35:48.332Z,12.94
2022-09-20T21:38:20.732Z,12.93
2022-09-20T21:40:54.916Z,12.89
2022-09-20T21:43:27.726Z,12.90
2022-09-20T21:46:00.235Z,12.87
2022-09-20T21:48:33.729Z,12.84
2022-09-20T21:51:07.378Z,12.82
2022-09-20T21:53:40.432Z,12.81
2022-09-20T21:56:15.620Z,12.83
2022-09-20T21:58:48.008Z,12.77
2022-09-20T22:01:21.868Z,12.78
2022-09-20T22:03:56.695Z,12.77
2022-09-20T22:06:28.795Z,12.72
2022-09-20T22:09:02.362Z,12.68
2022-09-20T22:11:34.776Z,12.65
2022-09-20T22:14:08.165Z,12.64
2022-09-20T22:16:41.665Z,12.60
2022-09-20T22:19:17.019Z,12.53
2022-09-20T22:21:51.026Z,12.55
2022-09-20T22:24:24.121Z,12.53
2022-09-20T22:26:56.081Z,12.50
2022-09-20T22:29:28.095Z,12.51
2022-09-20T22:32:00.499Z,12.51
2022-09-20T22:34:33.458Z,12.54
2022-09-20T22:37:05.481Z,12.47
2022-09-20T22:39:37.455Z,12.47
2022-09-20T22:42:10.293Z,12.45
2022-09-20T22:44:42.480Z,12.45
2022-09-20T22:47:14.931Z,12.46
2022-09-20T22:49:47.101Z,12.45
2022-09-20T22:52:19.440Z,12.47
2022-09-20T22:54:51.572Z,12.44
2022-09-20T22:57:23.654Z,12.41
2022-09-20T22:59:56.491Z,12.40
2022-09-20T23:02:28.416Z,12.39
2022-09-20T23:05:00.443Z,12.37
2022-09-20T23:07:33.202Z,12.33
2022-09-20T23:10:07.365Z,12.29
2022-09-20T23:12:39.923Z,12.23
2022-09-20T23:15:13.176Z,12.16
2022-09-20T23:17:45.144Z,12.10
2022-09-20T23:20:18.746Z,12.13
2022-09-20T23:22:50.741Z,12.13
2022-09-20T23:25:22.939Z,12.14
2022-09-20T23:27:56.908Z,12.10
2022-09-20T23:30:29.091Z,12.17
2022-09-20T23:33:01.210Z,12.00
2022-09-20T23:35:34.272Z,12.10
2022-09-20T23:38:06.260Z,12.07
2022-09-20T23:40:38.280Z,12.11
2022-09-20T23:43:10.311Z,12.13
2022-09-20T23:45:45.015Z,11.96
2022-09-20T23:48:16.990Z,12.17
2022-09-20T23:50:49.813Z,12.20
2022-09-20T23:53:22.170Z,12.18
2022-09-20T23:55:54.736Z,12.26
2022-09-20T23:58:27.362Z,12.27
